createdAt,value
2023-02-13T00:00:14.563Z,1033.08
2023-02-13T00:01:14.491Z,1033.10
2023-02-13T00:02:14.522Z,1033.12
2023-02-13T00:03:14.410Z,1033.13
2023-02-13T00:04:14.291Z,1033.09
2023-02-13T00:05:14.223Z,1033.10
2023-02-13T00:06:14.154Z,1033.11
2023-02-13T00:07:14.106Z,1033.10
2023-02-13T00:08:14.033Z,1033.09
2023-02-13T00:09:13.972Z,1033.09
2023-02-13T00:10:13.910Z,1033.08
2023-02-13T00:11:13.824Z,1033.07
2023-02-13T00:12:13.762Z,1033.07
2023-02-13T00:13:13.691Z,1033.10
2023-02-13T00:14:13.632Z,1033.08
2023-02-13T00:15:13.569Z,1033.09
2023-02-13T00:16:13.639Z,1033.10
2023-02-13T00:17:13.427Z,1033.12
2023-02-13T00:18:13.359Z,1033.11
2023-02-13T00:19:13.302Z,1033.14
2023-02-13T00:20:13.228Z,1033.09
2023-02-13T00:21:13.172Z,1033.10
2023-02-13T00:22:13.098Z,1033.12
2023-02-13T00:23:13.029Z,1033.12
2023-02-13T00:24:12.960Z,1033.09
2023-02-13T00:25:12.896Z,1033.12
2023-02-13T00:26:12.835Z,1033.08
2023-02-13T00:27:12.768Z,1033.10
2023-02-13T00:28:12.752Z,1033.09
2023-02-13T00:29:12.628Z,1033.12
2023-02-13T00:30:12.565Z,1033.09
2023-02-13T00:31:12.634Z,1033.12
2023-02-13T00:32:12.632Z,1033.03
2023-02-13T00:33:12.368Z,1033.05
2023-02-13T00:34:12.394Z,1033.05
2023-02-13T00:35:12.232Z,1033.05
2023-02-13T00:36:12.159Z,1033.04
2023-02-13T00:37:12.101Z,1033.07
2023-02-13T00:38:12.023Z,1033.05
2023-02-13T00:39:11.959Z,1033.11
2023-02-13T00:40:11.905Z,1033.09
2023-02-13T00:41:11.911Z,1033.07
2023-02-13T00:42:11.769Z,1033.07
2023-02-13T00:43:11.691Z,1033.05
2023-02-13T00:44:11.633Z,1033.07
2023-02-13T00:45:11.563Z,1033.04
2023-02-13T00:46:11.560Z,1033.03
2023-02-13T00:47:11.436Z,1033.02
2023-02-13T00:48:11.357Z,1033.02
2023-02-13T00:49:11.296Z,1032.99
2023-02-13T00:50:11.223Z,1032.99
2023-02-13T00:51:11.160Z,1032.96
2023-02-13T00:52:11.104Z,1032.96
2023-02-13T00:53:11.032Z,1033.00
2023-02-13T00:54:10.960Z,1033.05
2023-02-13T00:55:10.897Z,1033.01
2023-02-13T00:56:10.852Z,1033.02
2023-02-13T00:57:10.765Z,1033.01
2023-02-13T00:58:10.753Z,1032.99
2023-02-13T00:59:10.627Z,1033.01
2023-02-13T01:00:10.570Z,1033.05
2023-02-13T01:01:10.591Z,1033.02
2023-02-13T01:02:10.434Z,1032.99
2023-02-13T01:03:10.367Z,1033.03
2023-02-13T01:04:10.322Z,1033.00
2023-02-13T01:05:10.234Z,1033.01
2023-02-13T01:06:11.002Z,1033.03
2023-02-13T01:07:10.123Z,1033.03
2023-02-13T01:08:10.030Z,1033.05
2023-02-13T01:09:09.974Z,1033.03
2023-02-13T01:10:09.896Z,1033.09
2023-02-13T01:11:09.838Z,1033.05
2023-02-13T01:12:09.783Z,1033.06
2023-02-13T01:13:09.707Z,1033.08
2023-02-13T01:14:09.633Z,1033.05
2023-02-13T01:15:09.569Z,1033.06
2023-02-13T01:16:09.642Z,1033.07
2023-02-13T01:17:09.433Z,1033.09
2023-02-13T01:18:09.366Z,1033.04
2023-02-13T01:19:09.309Z,1033.12
2023-02-13T01:20:09.239Z,1033.09
2023-02-13T01:21:09.177Z,1033.12
2023-02-13T01:22:09.101Z,1033.06
2023-02-13T01:23:09.057Z,1033.09
2023-02-13T01:24:08.972Z,1033.11
2023-02-13T01:25:08.905Z,1033.11
2023-02-13T01:26:08.839Z,1033.05
2023-02-13T01:27:08.769Z,1033.06
2023-02-13T01:28:08.729Z,1033.03
2023-02-13T01:29:08.650Z,1033.05
2023-02-13T01:30:08.577Z,1033.08
2023-02-13T01:31:08.630Z,1033.04
2023-02-13T01:32:08.535Z,1033.05
2023-02-13T01:33:08.371Z,1033.06
2023-02-13T01:34:08.304Z,1033.04
2023-02-13T01:35:08.242Z,1033.03
2023-02-13T01:36:08.170Z,1032.99
2023-02-13T01:37:08.218Z,1033.02
2023-02-13T01:38:08.056Z,1033.02
2023-02-13T01:39:07.984Z,1033.02
2023-02-13T01:40:07.904Z,1032.97
2023-02-13T01:41:07.840Z,1033.00
2023-02-13T01:42:07.768Z,1032.99
2023-02-13T01:43:07.701Z,1032.96
2023-02-13T01:44:07.637Z,1032.96
2023-02-13T01:45:07.567Z,1032.97
2023-02-13T01:46:07.520Z,1032.98
2023-02-13T01:47:07.434Z,1032.95
2023-02-13T01:48:07.374Z,1032.97
2023-02-13T01:49:07.312Z,1032.99
2023-02-13T01:50:07.247Z,1032.97
2023-02-13T01:51:07.165Z,1032.98
2023-02-13T01:52:07.096Z,1032.98
2023-02-13T01:53:07.036Z,1032.98
2023-02-13T01:54:06.967Z,1032.98
2023-02-13T01:55:06.905Z,1032.97
2023-02-13T01:56:07.529Z,1032.97
2023-02-13T01:57:06.775Z,1032.98
2023-02-13T01:58:06.701Z,1033.00
2023-02-13T01:59:06.638Z,1032.98
2023-02-13T02:00:06.575Z,1032.95
2023-02-13T02:01:06.498Z,1032.97
2023-02-13T02:02:06.550Z,1032.95
2023-02-13T02:03:06.381Z,1032.96
2023-02-13T02:04:06.309Z,1032.92
2023-02-13T02:05:06.241Z,1032.92
2023-02-13T02:06:06.169Z,1032.94
2023-02-13T02:07:06.105Z,1032.94
2023-02-13T02:08:06.033Z,1032.93
2023-02-13T02:09:05.973Z,1032.96
2023-02-13T02:10:05.896Z,1032.96
2023-02-13T02:11:05.831Z,1032.99
2023-02-13T02:12:05.800Z,1032.98
2023-02-13T02:13:05.713Z,1033.01
2023-02-13T02:14:05.631Z,1033.00
2023-02-13T02:15:05.569Z,1033.03
2023-02-13T02:16:05.550Z,1033.01
2023-02-13T02:17:05.434Z,1033.01
2023-02-13T02:18:05.380Z,1033.02
2023-02-13T02:19:05.304Z,1033.03
2023-02-13T02:20:05.237Z,1033.04
2023-02-13T02:21:05.172Z,1033.01
2023-02-13T02:22:05.128Z,1033.00
2023-02-13T02:23:05.040Z,1033.06
2023-02-13T02:24:04.968Z,1033.03
2023-02-13T02:25:04.917Z,1033.01
2023-02-13T02:26:04.832Z,1033.05
2023-02-13T02:27:04.780Z,1033.04
2023-02-13T02:28:04.757Z,1033.03
2023-02-13T02:29:04.634Z,1033.08
2023-02-13T02:30:04.570Z,1033.06
2023-02-13T02:31:04.630Z,1033.03
2023-02-13T02:32:04.437Z,1033.06
2023-02-13T02:33:04.368Z,1033.05
2023-02-13T02:34:04.337Z,1033.05
2023-02-13T02:35:04.239Z,1033.06
2023-02-13T02:36:04.173Z,1033.07
2023-02-13T02:37:04.105Z,1033.09
2023-02-13T02:38:04.041Z,1033.12
2023-02-13T02:39:03.971Z,1033.07
2023-02-13T02:40:03.907Z,1033.13
2023-02-13T02:41:03.835Z,1033.09
2023-02-13T02:42:03.769Z,1033.09
2023-02-13T02:43:03.705Z,1033.11
2023-02-13T02:44:03.632Z,1033.12
2023-02-13T02:45:03.584Z,1033.09
2023-02-13T02:46:03.501Z,1033.07
2023-02-13T02:47:03.431Z,1033.08
2023-02-13T02:48:03.367Z,1033.06
2023-02-13T02:49:03.301Z,1033.06
2023-02-13T02:50:03.233Z,1033.09
2023-02-13T02:51:03.201Z,1033.12
2023-02-13T02:52:03.105Z,1033.09
2023-02-13T02:53:03.026Z,1033.12
2023-02-13T02:54:02.963Z,1033.09
2023-02-13T02:55:02.909Z,1033.09
2023-02-13T02:56:02.843Z,1033.09
2023-02-13T02:57:02.762Z,1033.10
2023-02-13T02:58:02.696Z,1033.09
2023-02-13T02:59:02.627Z,1033.10
2023-02-13T03:00:02.584Z,1033.11
2023-02-13T03:01:02.573Z,1033.05
2023-02-13T03:02:02.425Z,1033.08
2023-02-13T03:03:02.362Z,1033.09
2023-02-13T03:04:02.316Z,1033.10
2023-02-13T03:05:02.271Z,1033.08
2023-02-13T03:06:02.161Z,1033.05
2023-02-13T03:07:02.089Z,1033.07
2023-02-13T03:08:02.036Z,1033.07
2023-02-13T03:09:01.955Z,1033.09
2023-02-13T03:10:01.914Z,1033.11
2023-02-13T03:11:01.840Z,1033.07
2023-02-13T03:12:01.754Z,1033.08
2023-02-13T03:13:01.692Z,1033.07
2023-02-13T03:14:01.634Z,1033.06
2023-02-13T03:15:01.563Z,1033.12
2023-02-13T03:16:01.548Z,1033.08
2023-02-13T03:17:01.440Z,1033.06
2023-02-13T03:18:01.358Z,1033.11
2023-02-13T03:19:01.286Z,1033.11
2023-02-13T03:20:01.222Z,1033.07
2023-02-13T03:21:01.156Z,1033.08
2023-02-13T03:22:02.035Z,1033.09
2023-02-13T03:23:01.028Z,1033.08
2023-02-13T03:24:00.963Z,1033.10
2023-02-13T03:25:00.915Z,1033.10
2023-02-13T03:26:00.824Z,1033.08
2023-02-13T03:27:00.756Z,1033.07
2023-02-13T03:28:00.691Z,1033.03
2023-02-13T03:29:00.622Z,1033.04
2023-02-13T03:30:00.555Z,1033.08
2023-02-13T03:31:01.011Z,1033.12
2023-02-13T03:32:00.491Z,1033.11
2023-02-13T03:33:00.361Z,1033.10
2023-02-13T03:34:00.287Z,1033.13
2023-02-13T03:35:00.223Z,1033.13
2023-02-13T03:36:00.152Z,1033.10
2023-02-13T03:37:00.125Z,1033.09
2023-02-13T03:38:00.023Z,1033.11
2023-02-13T03:38:59.957Z,1033.13
2023-02-13T03:39:59.929Z,1033.10
2023-02-13T03:40:59.820Z,1033.09
2023-02-13T03:41:59.753Z,1033.08
2023-02-13T03:42:59.733Z,1033.09
2023-02-13T03:43:59.618Z,1033.10
2023-02-13T03:44:59.551Z,1033.06
2023-02-13T03:45:59.514Z,1033.06
2023-02-13T03:46:59.422Z,1033.05
2023-02-13T03:47:59.351Z,1033.03
2023-02-13T03:48:59.286Z,1033.00
2023-02-13T03:49:59.235Z,1032.98
2023-02-13T03:50:59.218Z,1032.99
2023-02-13T03:51:59.085Z,1032.98
2023-02-13T03:52:59.025Z,1032.95
2023-02-13T03:53:58.953Z,1032.95
2023-02-13T03:54:58.890Z,1032.94
2023-02-13T03:55:58.824Z,1032.93
2023-02-13T03:56:58.759Z,1032.94
2023-02-13T03:57:58.695Z,1032.98
2023-02-13T03:58:58.623Z,1032.96
2023-02-13T03:59:58.561Z,1032.98
2023-02-13T04:00:58.955Z,1032.98
2023-02-13T04:01:58.449Z,1032.94
2023-02-13T04:02:58.353Z,1032.92
2023-02-13T04:03:58.286Z,1032.95
2023-02-13T04:04:58.227Z,1032.91
2023-02-13T04:05:58.163Z,1032.89
2023-02-13T04:06:58.082Z,1032.91
2023-02-13T04:07:58.015Z,1032.94
2023-02-13T04:08:57.948Z,1032.88
2023-02-13T04:09:57.882Z,1032.89
2023-02-13T04:10:58.136Z,1032.87
2023-02-13T04:11:57.772Z,1032.84
2023-02-13T04:12:57.684Z,1032.89
2023-02-13T04:13:57.618Z,1032.84
2023-02-13T04:14:57.549Z,1032.87
2023-02-13T04:15:57.520Z,1032.81
2023-02-13T04:16:57.455Z,1032.83
2023-02-13T04:17:57.347Z,1032.84
2023-02-13T04:18:57.280Z,1032.81
2023-02-13T04:19:57.214Z,1032.80
2023-02-13T04:20:57.426Z,1032.78
2023-02-13T04:21:57.084Z,1032.83
2023-02-13T04:22:57.015Z,1032.80
2023-02-13T04:23:56.959Z,1032.83
2023-02-13T04:24:56.878Z,1032.79
2023-02-13T04:25:56.824Z,1032.78
2023-02-13T04:26:56.748Z,1032.82
2023-02-13T04:27:56.695Z,1032.85
2023-02-13T04:28:56.619Z,1032.83
2023-02-13T04:29:56.556Z,1032.84
2023-02-13T04:30:56.972Z,1032.84
2023-02-13T04:31:56.436Z,1032.88
2023-02-13T04:32:56.350Z,1032.91
2023-02-13T04:33:56.282Z,1032.89
2023-02-13T04:34:56.219Z,1032.88
2023-02-13T04:35:56.147Z,1032.89
2023-02-13T04:36:56.079Z,1032.89
2023-02-13T04:37:56.017Z,1032.88
2023-02-13T04:38:55.951Z,1032.87
2023-02-13T04:39:55.881Z,1032.84
2023-02-13T04:40:56.213Z,1032.84
2023-02-13T04:41:55.754Z,1032.82
2023-02-13T04:42:55.684Z,1032.82
2023-02-13T04:43:55.620Z,1032.79
2023-02-13T04:44:55.545Z,1032.79
2023-02-13T04:45:55.510Z,1032.78
2023-02-13T04:46:55.421Z,1032.75
2023-02-13T04:47:55.413Z,1032.72
2023-02-13T04:48:55.312Z,1032.73
2023-02-13T04:49:55.213Z,1032.73
2023-02-13T04:50:55.587Z,1032.73
2023-02-13T04:51:55.078Z,1032.70
2023-02-13T04:52:55.016Z,1032.71
2023-02-13T04:53:55.575Z,1032.73
2023-02-13T04:54:54.881Z,1032.75
2023-02-13T04:55:54.811Z,1032.77
2023-02-13T04:56:54.753Z,1032.75
2023-02-13T04:57:54.679Z,1032.76
2023-02-13T04:58:54.624Z,1032.74
2023-02-13T04:59:54.559Z,1032.75
2023-02-13T05:00:54.935Z,1032.75
2023-02-13T05:01:54.410Z,1032.73
2023-02-13T05:02:54.345Z,1032.75
2023-02-13T05:03:54.302Z,1032.78
2023-02-13T05:04:54.218Z,1032.73
2023-02-13T05:05:54.151Z,1032.76
2023-02-13T05:06:54.073Z,1032.74
2023-02-13T05:07:54.007Z,1032.74
2023-02-13T05:08:53.947Z,1032.70
2023-02-13T05:09:53.873Z,1032.71
2023-02-13T05:10:53.811Z,1032.77
2023-02-13T05:11:53.740Z,1032.72
2023-02-13T05:12:53.671Z,1032.75
2023-02-13T05:13:53.614Z,1032.76
2023-02-13T05:14:53.544Z,1032.75
2023-02-13T05:15:53.675Z,1032.78
2023-02-13T05:16:53.409Z,1032.74
2023-02-13T05:17:53.346Z,1032.78
2023-02-13T05:18:53.294Z,1032.81
2023-02-13T05:19:53.210Z,1032.80
2023-02-13T05:20:53.136Z,1032.75
2023-02-13T05:21:53.176Z,1032.77
2023-02-13T05:22:53.018Z,1032.77
2023-02-13T05:23:52.939Z,1032.72
2023-02-13T05:24:52.867Z,1032.75
2023-02-13T05:25:52.802Z,1032.76
2023-02-13T05:26:52.766Z,1032.75
2023-02-13T05:27:52.678Z,1032.73
2023-02-13T05:28:52.613Z,1032.75
2023-02-13T05:29:52.542Z,1032.78
2023-02-13T05:30:52.550Z,1032.78
2023-02-13T05:31:52.643Z,1032.80
2023-02-13T05:32:52.335Z,1032.73
2023-02-13T05:33:52.276Z,1032.79
2023-02-13T05:34:52.215Z,1032.78
2023-02-13T05:35:52.151Z,1032.77
2023-02-13T05:36:52.090Z,1032.81
2023-02-13T05:37:52.003Z,1032.78
2023-02-13T05:38:51.935Z,1032.81
2023-02-13T05:39:51.895Z,1032.82
2023-02-13T05:40:51.804Z,1032.73
2023-02-13T05:41:51.734Z,1032.78
2023-02-13T05:42:51.666Z,1032.80
2023-02-13T05:43:51.604Z,1032.82
2023-02-13T05:44:51.546Z,1032.79
2023-02-13T05:45:51.469Z,1032.83
2023-02-13T05:46:51.405Z,1032.82
2023-02-13T05:47:51.354Z,1032.83
2023-02-13T05:48:51.264Z,1032.81
2023-02-13T05:49:51.198Z,1032.86
2023-02-13T05:50:51.153Z,1032.84
2023-02-13T05:51:51.586Z,1032.84
2023-02-13T05:52:51.005Z,1032.85
2023-02-13T05:53:50.937Z,1032.87
2023-02-13T05:54:50.868Z,1032.90
2023-02-13T05:55:50.794Z,1032.93
2023-02-13T05:56:50.730Z,1032.95
2023-02-13T05:57:50.665Z,1032.94
2023-02-13T05:58:50.648Z,1032.91
2023-02-13T05:59:50.527Z,1032.93
2023-02-13T06:00:50.456Z,1032.94
2023-02-13T06:01:50.394Z,1033.02
2023-02-13T06:02:50.396Z,1033.02
2023-02-13T06:03:50.305Z,1033.02
2023-02-13T06:04:50.202Z,1033.00
2023-02-13T06:05:50.124Z,1033.03
2023-02-13T06:06:50.079Z,1033.03
2023-02-13T06:07:50.258Z,1033.03
2023-02-13T06:08:49.924Z,1033.02
2023-02-13T06:09:49.889Z,1033.03
2023-02-13T06:10:49.789Z,1033.06
2023-02-13T06:11:49.720Z,1033.07
2023-02-13T06:12:49.652Z,1033.06
2023-02-13T06:13:49.595Z,1033.07
2023-02-13T06:14:49.522Z,1033.14
2023-02-13T06:15:49.487Z,1033.12
2023-02-13T06:16:49.398Z,1033.12
2023-02-13T06:17:49.321Z,1033.08
2023-02-13T06:18:49.255Z,1033.07
2023-02-13T06:19:49.193Z,1033.10
2023-02-13T06:20:49.117Z,1033.09
2023-02-13T06:21:49.055Z,1033.15
2023-02-13T06:22:49.011Z,1033.13
2023-02-13T06:23:48.919Z,1033.12
2023-02-13T06:24:48.848Z,1033.08
2023-02-13T06:25:48.816Z,1033.10
2023-02-13T06:26:48.718Z,1033.09
2023-02-13T06:27:48.653Z,1033.09
2023-02-13T06:28:48.588Z,1033.12
2023-02-13T06:29:48.518Z,1033.07
2023-02-13T06:30:48.508Z,1033.07
2023-02-13T06:31:48.451Z,1033.13
2023-02-13T06:32:48.328Z,1033.16
2023-02-13T06:33:48.249Z,1033.14
2023-02-13T06:34:48.198Z,1033.16
2023-02-13T06:35:48.136Z,1033.19
2023-02-13T06:36:48.049Z,1033.13
2023-02-13T06:37:47.987Z,1033.10
2023-02-13T06:38:47.915Z,1033.14
2023-02-13T06:39:47.887Z,1033.15
2023-02-13T06:40:47.817Z,1033.16
2023-02-13T06:41:47.733Z,1033.15
2023-02-13T06:42:47.665Z,1033.11
2023-02-13T06:43:47.583Z,1033.15
2023-02-13T06:44:47.516Z,1033.19
2023-02-13T06:45:47.497Z,1033.24
2023-02-13T06:46:47.459Z,1033.22
2023-02-13T06:47:47.320Z,1033.23
2023-02-13T06:48:47.282Z,1033.22
2023-02-13T06:49:47.188Z,1033.21
2023-02-13T06:50:47.119Z,1033.23
2023-02-13T06:51:47.061Z,1033.26
2023-02-13T06:52:46.990Z,1033.24
2023-02-13T06:53:46.918Z,1033.27
2023-02-13T06:54:48.225Z,1033.26
2023-02-13T06:55:46.779Z,1033.30
2023-02-13T06:56:46.716Z,1033.30
2023-02-13T06:57:46.648Z,1033.32
2023-02-13T06:58:46.584Z,1033.34
2023-02-13T06:59:46.516Z,1033.36
2023-02-13T07:00:46.521Z,1033.38
2023-02-13T07:01:46.384Z,1033.37
2023-02-13T07:02:46.355Z,1033.37
2023-02-13T07:03:46.261Z,1033.39
2023-02-13T07:04:46.194Z,1033.39
2023-02-13T07:05:46.133Z,1033.41
2023-02-13T07:06:46.054Z,1033.37
2023-02-13T07:07:46.001Z,1033.42
2023-02-13T07:08:45.917Z,1033.43
2023-02-13T07:09:45.852Z,1033.38
2023-02-13T07:10:45.790Z,1033.40
2023-02-13T07:11:45.712Z,1033.44
2023-02-13T07:12:49.164Z,1033.41
2023-02-13T07:13:46.104Z,1033.43
2023-02-13T07:14:45.526Z,1033.40
2023-02-13T07:15:45.482Z,1033.40
2023-02-13T07:16:45.383Z,1033.42
2023-02-13T07:17:45.341Z,1033.45
2023-02-13T07:18:45.253Z,1033.43
2023-02-13T07:19:45.180Z,1033.45
2023-02-13T07:20:45.116Z,1033.37
2023-02-13T07:21:45.046Z,1033.45
2023-02-13T07:22:44.991Z,1033.47
2023-02-13T07:23:44.940Z,1033.50
2023-02-13T07:24:44.852Z,1033.50
2023-02-13T07:25:44.781Z,1033.52
2023-02-13T07:26:44.749Z,1033.50
2023-02-13T07:27:44.649Z,1033.53
2023-02-13T07:28:45.112Z,1033.55
2023-02-13T07:29:44.523Z,1033.56
2023-02-13T07:30:44.494Z,1033.55
2023-02-13T07:31:44.472Z,1033.55
2023-02-13T07:32:44.319Z,1033.58
2023-02-13T07:33:44.249Z,1033.57
2023-02-13T07:34:59.610Z,1033.54
2023-02-13T07:35:44.127Z,1033.54
2023-02-13T07:36:44.053Z,1033.60
2023-02-13T07:37:43.986Z,1033.55
2023-02-13T07:38:43.927Z,1033.55
2023-02-13T07:39:43.858Z,1033.55
2023-02-13T07:40:43.800Z,1033.53
2023-02-13T07:41:43.737Z,1033.55
2023-02-13T07:42:43.685Z,1033.55
2023-02-13T07:43:43.587Z,1033.58
2023-02-13T07:44:43.532Z,1033.60
2023-02-13T07:45:43.466Z,1033.63
2023-02-13T07:46:43.415Z,1033.61
2023-02-13T07:47:43.327Z,1033.60
2023-02-13T07:48:43.257Z,1033.59
2023-02-13T07:49:43.189Z,1033.62
2023-02-13T07:50:43.126Z,1033.57
2023-02-13T07:51:43.056Z,1033.62
2023-02-13T07:52:43.005Z,1033.61
2023-02-13T07:53:43.652Z,1033.55
2023-02-13T07:54:42.859Z,1033.55
2023-02-13T07:55:42.816Z,1033.59
2023-02-13T07:56:42.747Z,1033.59
2023-02-13T07:57:42.663Z,1033.60
2023-02-13T07:58:42.600Z,1033.61
2023-02-13T07:59:42.531Z,1033.58
2023-02-13T08:00:42.462Z,1033.56
2023-02-13T08:01:42.443Z,1033.60
2023-02-13T08:02:42.331Z,1033.58
2023-02-13T08:03:42.340Z,1033.56
2023-02-13T08:04:42.193Z,1033.56
2023-02-13T08:05:42.124Z,1033.59
2023-02-13T08:06:42.061Z,1033.60
2023-02-13T08:07:42.133Z,1033.63
2023-02-13T08:08:41.945Z,1033.63
2023-02-13T08:09:41.867Z,1033.65
2023-02-13T08:10:41.797Z,1033.67
2023-02-13T08:11:41.731Z,1033.67
2023-02-13T08:12:41.660Z,1033.63
2023-02-13T08:13:41.609Z,1033.64
2023-02-13T08:14:41.545Z,1033.68
2023-02-13T08:15:41.463Z,1033.68
2023-02-13T08:16:41.502Z,1033.70
2023-02-13T08:17:41.324Z,1033.63
2023-02-13T08:18:41.258Z,1033.68
2023-02-13T08:19:41.204Z,1033.66
2023-02-13T08:20:41.218Z,1033.69
2023-02-13T08:21:41.053Z,1033.68
2023-02-13T08:22:41.002Z,1033.63
2023-02-13T08:23:40.971Z,1033.61
2023-02-13T08:24:41.289Z,1033.62
2023-02-13T08:25:40.807Z,1033.62
2023-02-13T08:26:40.736Z,1033.58
2023-02-13T08:27:40.676Z,1033.57
2023-02-13T08:28:40.656Z,1033.56
2023-02-13T08:29:40.549Z,1033.58
2023-02-13T08:30:40.468Z,1033.63
2023-02-13T08:31:40.471Z,1033.65
2023-02-13T08:32:53.484Z,1033.65
2023-02-13T08:33:41.136Z,1033.67
2023-02-13T08:34:40.259Z,1033.67
2023-02-13T08:35:40.118Z,1033.66
2023-02-13T08:36:40.070Z,1033.64
2023-02-13T08:37:39.988Z,1033.65
2023-02-13T08:39:39.862Z,1033.65
2023-02-13T08:40:39.790Z,1033.63
2023-02-13T08:41:39.725Z,1033.61
2023-02-13T08:42:39.661Z,1033.62
2023-02-13T08:43:39.597Z,1033.62
2023-02-13T08:44:39.525Z,1033.57
2023-02-13T08:45:39.558Z,1033.59
2023-02-13T08:46:39.434Z,1033.59
2023-02-13T08:47:39.325Z,1033.62
2023-02-13T08:48:39.264Z,1033.65
2023-02-13T08:49:39.199Z,1033.65
2023-02-13T08:50:39.132Z,1033.63
2023-02-13T08:51:39.066Z,1033.64
2023-02-13T08:52:39.001Z,1033.62
2023-02-13T08:53:38.927Z,1033.68
2023-02-13T08:54:38.866Z,1033.59
2023-02-13T08:55:38.806Z,1033.61
2023-02-13T08:56:38.729Z,1033.62
2023-02-13T08:57:38.669Z,1033.62
2023-02-13T08:58:38.598Z,1033.64
2023-02-13T08:59:38.540Z,1033.68
2023-02-13T09:00:38.477Z,1033.63
2023-02-13T09:01:38.460Z,1033.69
2023-02-13T09:02:38.421Z,1033.67
2023-02-13T09:03:38.270Z,1033.66
2023-02-13T09:04:38.201Z,1033.65
2023-02-13T09:05:38.138Z,1033.71
2023-02-13T09:06:38.073Z,1033.70
2023-02-13T09:07:38.001Z,1033.72
2023-02-13T09:08:37.935Z,1033.75
2023-02-13T09:09:37.880Z,1033.74
2023-02-13T09:10:37.805Z,1033.71
2023-02-13T09:11:37.751Z,1033.68
2023-02-13T09:12:37.673Z,1033.72
2023-02-13T09:13:37.606Z,1033.72
2023-02-13T09:14:37.541Z,1033.72
2023-02-13T09:15:37.495Z,1033.72
2023-02-13T09:16:37.460Z,1033.70
2023-02-13T09:17:37.363Z,1033.73
2023-02-13T09:18:37.294Z,1033.77
2023-02-13T09:19:37.234Z,1033.76
2023-02-13T09:20:37.148Z,1033.81
2023-02-13T09:21:37.151Z,1033.83
2023-02-13T09:22:37.023Z,1033.77
2023-02-13T09:23:36.957Z,1033.81
2023-02-13T09:24:37.646Z,1033.78
2023-02-13T09:25:36.815Z,1033.78
2023-02-13T09:26:36.750Z,1033.82
2023-02-13T09:27:36.687Z,1033.81
2023-02-13T09:28:36.655Z,1033.82
2023-02-13T09:29:36.546Z,1033.83
2023-02-13T09:30:36.521Z,1033.84
2023-02-13T09:31:36.585Z,1033.86
2023-02-13T09:32:36.353Z,1033.87
2023-02-13T09:33:36.279Z,1033.84
2023-02-13T09:34:36.220Z,1033.87
2023-02-13T09:35:36.151Z,1033.84
2023-02-13T09:36:36.083Z,1033.89
2023-02-13T09:37:36.063Z,1033.85
2023-02-13T09:38:35.952Z,1033.85
2023-02-13T09:39:35.884Z,1033.89
2023-02-13T09:40:35.825Z,1033.92
2023-02-13T09:41:35.757Z,1033.93
2023-02-13T09:42:35.684Z,1033.93
2023-02-13T09:43:35.619Z,1033.98
2023-02-13T09:44:35.605Z,1033.94
2023-02-13T09:45:35.486Z,1033.94
2023-02-13T09:46:35.457Z,1033.90
2023-02-13T09:47:35.380Z,1033.91
2023-02-13T09:48:36.177Z,1033.92
2023-02-13T09:49:35.216Z,1033.90
2023-02-13T09:50:35.155Z,1033.92
2023-02-13T09:51:35.086Z,1033.85
2023-02-13T09:52:35.025Z,1033.84
2023-02-13T09:53:34.953Z,1033.79
2023-02-13T09:54:34.952Z,1033.83
2023-02-13T09:55:34.818Z,1033.78
2023-02-13T09:56:34.752Z,1033.80
2023-02-13T09:57:34.699Z,1033.77
2023-02-13T09:58:34.619Z,1033.76
2023-02-13T09:59:34.549Z,1033.77
2023-02-13T10:00:34.502Z,1033.76
2023-02-13T10:01:34.526Z,1033.79
2023-02-13T10:02:34.353Z,1033.81
2023-02-13T10:03:34.287Z,1033.78
2023-02-13T10:04:34.276Z,1033.80
2023-02-13T10:05:34.151Z,1033.82
2023-02-13T10:06:34.085Z,1033.84
2023-02-13T10:07:34.053Z,1033.82
2023-02-13T10:08:33.955Z,1033.85
2023-02-13T10:09:33.883Z,1033.85
2023-02-13T10:10:33.832Z,1033.89
2023-02-13T10:11:33.748Z,1033.88
2023-02-13T10:12:33.688Z,1033.86
2023-02-13T10:13:34.163Z,1033.88
2023-02-13T10:14:33.556Z,1033.88
2023-02-13T10:15:33.553Z,1033.87
2023-02-13T10:16:33.423Z,1033.86
2023-02-13T10:17:33.350Z,1033.83
2023-02-13T10:18:33.284Z,1033.83
2023-02-13T10:19:33.218Z,1033.81
2023-02-13T10:20:33.158Z,1033.79
2023-02-13T10:21:33.079Z,1033.83
2023-02-13T10:22:33.046Z,1033.83
2023-02-13T10:23:32.948Z,1033.82
2023-02-13T10:24:32.885Z,1033.84
2023-02-13T10:25:32.812Z,1033.84
2023-02-13T10:26:32.749Z,1033.79
2023-02-13T10:27:32.681Z,1033.78
2023-02-13T10:28:32.734Z,1033.79
2023-02-13T10:29:32.547Z,1033.77
2023-02-13T10:30:32.487Z,1033.76
2023-02-13T10:31:35.075Z,1033.83
2023-02-13T10:32:32.349Z,1033.82
2023-02-13T10:33:32.286Z,1033.79
2023-02-13T10:34:32.225Z,1033.79
2023-02-13T10:35:32.222Z,1033.79
2023-02-13T10:36:32.080Z,1033.79
2023-02-13T10:37:32.017Z,1033.80
2023-02-13T10:38:31.956Z,1033.81
2023-02-13T10:39:31.880Z,1033.81
2023-02-13T10:40:31.828Z,1033.78
2023-02-13T10:41:31.755Z,1033.79
2023-02-13T10:42:31.703Z,1033.82
2023-02-13T10:43:31.618Z,1033.79
2023-02-13T10:44:31.551Z,1033.79
2023-02-13T10:45:31.492Z,1033.80
2023-02-13T10:46:31.507Z,1033.79
2023-02-13T10:47:31.355Z,1033.75
2023-02-13T10:48:31.292Z,1033.75
2023-02-13T10:49:31.223Z,1033.75
2023-02-13T10:50:31.152Z,1033.79
2023-02-13T10:51:31.099Z,1033.71
2023-02-13T10:52:31.017Z,1033.69
2023-02-13T10:53:30.955Z,1033.70
2023-02-13T10:54:30.893Z,1033.67
2023-02-13T10:55:30.819Z,1033.63
2023-02-13T10:56:30.764Z,1033.63
2023-02-13T10:57:30.695Z,1033.59
2023-02-13T10:58:30.642Z,1033.58
2023-02-13T10:59:30.556Z,1033.58
2023-02-13T11:00:30.492Z,1033.61
2023-02-13T11:01:30.472Z,1033.55
2023-02-13T11:02:30.356Z,1033.57
2023-02-13T11:03:30.284Z,1033.58
2023-02-13T11:04:30.331Z,1033.57
2023-02-13T11:05:30.153Z,1033.56
2023-02-13T11:06:30.089Z,1033.58
2023-02-13T11:07:30.029Z,1033.57
2023-02-13T11:08:29.960Z,1033.54
2023-02-13T11:09:29.889Z,1033.56
2023-02-13T11:10:29.826Z,1033.56
2023-02-13T11:11:29.759Z,1033.53
2023-02-13T11:12:29.781Z,1033.50
2023-02-13T11:13:29.634Z,1033.51
2023-02-13T11:14:29.558Z,1033.53
2023-02-13T11:15:29.492Z,1033.51
2023-02-13T11:16:29.464Z,1033.52
2023-02-13T11:17:29.367Z,1033.51
2023-02-13T11:18:29.291Z,1033.46
2023-02-13T11:19:29.237Z,1033.47
2023-02-13T11:20:29.160Z,1033.47
2023-02-13T11:21:29.096Z,1033.45
2023-02-13T11:22:29.039Z,1033.51
2023-02-13T11:23:28.969Z,1033.50
2023-02-13T11:24:28.898Z,1033.48
2023-02-13T11:25:28.838Z,1033.46
2023-02-13T11:26:28.768Z,1033.48
2023-02-13T11:27:28.700Z,1033.46
2023-02-13T11:28:28.650Z,1033.46
2023-02-13T11:29:28.577Z,1033.42
2023-02-13T11:30:28.502Z,1033.41
2023-02-13T11:31:28.521Z,1033.36
2023-02-13T11:32:28.449Z,1033.38
2023-02-13T11:33:28.307Z,1033.39
2023-02-13T11:34:28.240Z,1033.37
2023-02-13T11:35:28.197Z,1033.30
2023-02-13T11:36:28.125Z,1033.31
2023-02-13T11:37:28.042Z,1033.33
2023-02-13T11:38:27.973Z,1033.32
2023-02-13T11:39:27.936Z,1033.37
2023-02-13T11:40:27.843Z,1033.35
2023-02-13T11:41:27.779Z,1033.31
2023-02-13T11:42:27.726Z,1033.32
2023-02-13T11:43:27.649Z,1033.33
2023-02-13T11:44:27.576Z,1033.33
2023-02-13T11:45:27.516Z,1033.33
2023-02-13T11:46:27.474Z,1033.27
2023-02-13T11:47:27.377Z,1033.28
2023-02-13T11:48:27.312Z,1033.29
2023-02-13T11:49:27.253Z,1033.28
2023-02-13T11:50:27.192Z,1033.24
2023-02-13T11:51:27.133Z,1033.21
2023-02-13T11:52:27.053Z,1033.21
2023-02-13T11:53:26.988Z,1033.25
2023-02-13T11:54:26.921Z,1033.23
2023-02-13T11:55:26.864Z,1033.19
2023-02-13T11:56:26.789Z,1033.20
2023-02-13T11:57:26.730Z,1033.17
2023-02-13T11:58:26.687Z,1033.14
2023-02-13T11:59:26.601Z,1033.17
2023-02-13T12:00:27.190Z,1033.19
2023-02-13T12:01:26.469Z,1033.16
2023-02-13T12:02:26.428Z,1033.11
2023-02-13T12:03:26.461Z,1033.11
2023-02-13T12:04:26.272Z,1033.15
2023-02-13T12:05:26.217Z,1033.10